Concord, North Carolina
Current Conditions -  °F | °C
As of 12:52 PM on Thursday 23 Oct 2014 (Local Time) from KJQF Reporting Station
Clear Clear  
Wind Chill: 64°   Ceiling: Unl
Heat Index: 64°   Visibility: 10mi
Dew Point: 39°   Wind: 8mph
Humidity: 40%   Direction: 320°NW
Pressure: 30.09"   Gusts: NA
Location:  35.41°N, 80.58°W
Report Text: KJQF 231652Z 32007KT 10SM CLR 18/04 A3009
Loading
Personal Weather Stations






























Interactive Weather Map New forecast layout! Learn more

10-Day Weather Forecast

Advertisements
Track Severe Weather on mobile